createdAt,value
2023-04-10T00:02:42.842Z,6.50
2023-04-10T00:05:30.985Z,6.50
2023-04-10T00:08:19.048Z,6.40
2023-04-10T00:11:07.069Z,6.30
2023-04-10T00:13:55.510Z,6.20
2023-04-10T00:16:45.038Z,6.20
2023-04-10T00:19:33.064Z,6.20
2023-04-10T00:22:21.045Z,6.10
2023-04-10T00:25:09.395Z,6.10
2023-04-10T00:27:57.481Z,6.10
2023-04-10T00:30:45.574Z,6.10
2023-04-10T00:33:34.934Z,6.10
2023-04-10T00:36:23.399Z,6.10
2023-04-10T00:39:11.459Z,6.10
2023-04-10T00:41:59.756Z,6.10
2023-04-10T00:44:48.042Z,6.00
2023-04-10T00:47:36.686Z,5.90
2023-04-10T00:50:26.058Z,5.90
2023-04-10T00:53:14.102Z,5.90
2023-04-10T00:56:02.657Z,5.70
2023-04-10T00:58:50.704Z,5.70
2023-04-10T01:01:38.860Z,5.60
2023-04-10T01:04:28.830Z,5.50
2023-04-10T01:07:22.902Z,5.50
2023-04-10T01:10:16.155Z,5.50
2023-04-10T01:13:09.659Z,5.50
2023-04-10T01:16:02.592Z,5.50
2023-04-10T01:18:53.821Z,5.50
2023-04-10T01:21:42.636Z,5.50
2023-04-10T01:24:44.266Z,5.50
2023-04-10T01:27:38.091Z,5.40
2023-04-10T01:30:28.197Z,5.40
2023-04-10T01:33:18.942Z,5.40
2023-04-10T01:36:08.390Z,5.30
2023-04-10T01:38:57.549Z,5.20
2023-04-10T01:41:46.218Z,5.20
2023-04-10T01:44:35.432Z,5.20
2023-04-10T01:47:25.902Z,5.10
2023-04-10T01:50:14.965Z,5.10
2023-04-10T01:53:03.699Z,5.10
2023-04-10T01:55:51.974Z,5.10
2023-04-10T01:58:40.120Z,5.10
2023-04-10T02:01:30.134Z,5.10
2023-04-10T02:04:20.180Z,5.10
2023-04-10T02:07:09.907Z,5.10
2023-04-10T02:10:00.938Z,5.10
2023-04-10T02:12:54.034Z,5.10
2023-04-10T02:15:43.538Z,5.00
2023-04-10T02:18:34.788Z,4.90
2023-04-10T02:21:27.069Z,4.90
2023-04-10T02:24:15.167Z,4.90
2023-04-10T02:27:03.235Z,4.90
2023-04-10T02:29:51.590Z,4.90
2023-04-10T02:32:39.683Z,4.90
2023-04-10T02:35:29.196Z,4.90
2023-04-10T02:38:18.563Z,4.90
2023-04-10T02:41:06.747Z,4.80
2023-04-10T02:43:54.906Z,4.80
2023-04-10T02:46:42.996Z,4.80
2023-04-10T02:49:31.623Z,4.80
2023-04-10T02:52:19.669Z,4.70
2023-04-10T02:55:09.639Z,4.70
2023-04-10T02:57:57.673Z,4.60
2023-04-10T03:00:48.786Z,4.60
2023-04-10T03:03:37.003Z,4.60
2023-04-10T03:06:27.237Z,4.60
2023-04-10T03:09:15.333Z,4.50
2023-04-10T03:12:04.850Z,4.50
2023-04-10T03:14:53.174Z,4.50
2023-04-10T03:17:41.273Z,4.40
2023-04-10T03:20:29.304Z,4.50
2023-04-10T03:23:17.326Z,4.50
2023-04-10T03:26:05.692Z,4.50
2023-04-10T03:28:55.049Z,4.50
2023-04-10T03:31:43.075Z,4.40
2023-04-10T03:34:31.131Z,4.40
2023-04-10T03:37:19.530Z,4.40
2023-04-10T03:40:08.852Z,4.30
2023-04-10T03:42:56.892Z,4.20
2023-04-10T03:45:47.255Z,4.10
2023-04-10T03:48:35.479Z,4.00
2023-04-10T03:51:24.769Z,4.10
2023-04-10T03:54:12.926Z,4.00
2023-04-10T03:57:01.481Z,4.00
2023-04-10T03:59:49.564Z,4.00
2023-04-10T04:02:39.121Z,4.00
2023-04-10T04:05:27.657Z,4.00
2023-04-10T04:08:15.668Z,4.00
2023-04-10T04:11:03.741Z,4.00
2023-04-10T04:13:52.342Z,4.00
2023-04-10T04:16:40.850Z,3.90
2023-04-10T04:19:30.402Z,3.90
2023-04-10T04:22:18.506Z,3.80
2023-04-10T04:25:10.652Z,3.80
2023-04-10T04:27:58.655Z,3.80
2023-04-10T04:30:46.688Z,3.80
2023-04-10T04:33:34.692Z,3.80
2023-04-10T04:36:24.109Z,3.90
2023-04-10T04:39:12.142Z,3.90
2023-04-10T04:42:01.666Z,3.80
2023-04-10T04:44:50.436Z,3.80
2023-04-10T04:47:38.472Z,3.80
2023-04-10T04:50:26.539Z,3.80
2023-04-10T04:53:15.871Z,3.90
2023-04-10T04:56:03.968Z,3.90
2023-04-10T04:58:52.067Z,3.90
2023-04-10T05:01:40.440Z,4.00
2023-04-10T05:04:28.557Z,3.90
2023-04-10T05:07:16.661Z,3.90
2023-04-10T05:10:07.126Z,4.00
2023-04-10T05:12:55.150Z,4.00
2023-04-10T05:15:43.205Z,4.10
2023-04-10T05:18:31.325Z,4.10
2023-04-10T05:21:19.478Z,4.20
2023-04-10T05:24:07.531Z,4.20
2023-04-10T05:26:57.733Z,4.30
2023-04-10T05:29:45.847Z,4.40
2023-04-10T05:32:33.921Z,4.50
2023-04-10T05:35:21.961Z,4.50
2023-04-10T05:38:10.099Z,4.60
2023-04-10T05:40:58.121Z,4.70
2023-04-10T05:43:47.568Z,4.80
2023-04-10T05:46:35.670Z,4.90
2023-04-10T05:49:23.726Z,5.00
2023-04-10T05:52:11.740Z,5.10
2023-04-10T05:54:59.795Z,5.20
2023-04-10T05:57:47.875Z,5.30
2023-04-10T06:00:37.900Z,5.40
2023-04-10T06:03:27.706Z,5.50
2023-04-10T06:06:15.873Z,5.60
2023-04-10T06:09:04.098Z,5.80
2023-04-10T06:11:53.444Z,5.90
2023-04-10T06:14:41.545Z,6.00
2023-04-10T06:17:30.957Z,6.20
2023-04-10T06:20:18.975Z,6.20
2023-04-10T06:23:07.043Z,6.40
2023-04-10T06:25:55.080Z,6.50
2023-04-10T06:28:43.156Z,6.60
2023-04-10T06:31:33.611Z,6.80
2023-04-10T06:34:22.976Z,7.00
2023-04-10T06:37:11.195Z,7.10
2023-04-10T06:40:06.029Z,7.20
2023-04-10T06:42:54.043Z,7.30
2023-04-10T06:45:42.081Z,7.50
2023-04-10T06:48:30.127Z,7.60
2023-04-10T06:51:19.587Z,7.80
2023-04-10T06:54:07.939Z,7.90
2023-04-10T06:56:58.803Z,8.00
2023-04-10T06:59:47.083Z,8.20
2023-04-10T07:02:35.128Z,8.30
2023-04-10T07:05:23.706Z,8.40
2023-04-10T07:08:13.090Z,8.60
2023-04-10T07:11:01.369Z,8.70
2023-04-10T07:13:53.879Z,8.80
2023-04-10T07:16:42.076Z,8.90
2023-04-10T07:19:30.281Z,9.00
2023-04-10T07:22:18.638Z,9.20
2023-04-10T07:25:08.970Z,9.30
2023-04-10T07:27:57.070Z,9.50
2023-04-10T07:30:45.078Z,9.60
2023-04-10T07:33:33.143Z,9.70
2023-04-10T07:36:21.254Z,9.80
2023-04-10T07:39:09.310Z,9.80
2023-04-10T07:41:58.687Z,10.00
2023-04-10T07:44:47.108Z,10.10
2023-04-10T07:47:35.216Z,10.30
2023-04-10T07:50:23.306Z,10.30
2023-04-10T07:53:11.435Z,10.40
2023-04-10T07:55:59.486Z,10.50
2023-04-10T07:58:49.287Z,10.60
2023-04-10T08:01:37.324Z,10.80
2023-04-10T08:04:25.537Z,11.00
2023-04-10T08:07:13.732Z,11.10
2023-04-10T08:10:01.803Z,11.20
2023-04-10T08:12:50.065Z,11.30
2023-04-10T08:15:39.440Z,11.30
2023-04-10T08:18:27.466Z,11.40
2023-04-10T08:21:15.468Z,11.60
2023-04-10T08:24:04.092Z,11.80
2023-04-10T08:26:52.129Z,11.90
2023-04-10T08:29:40.126Z,12.00
2023-04-10T08:32:30.584Z,12.00
2023-04-10T08:35:18.654Z,12.10
2023-04-10T08:40:57.727Z,12.30
2023-04-10T08:43:46.731Z,12.40
2023-04-10T08:46:36.386Z,12.40
2023-04-10T08:49:29.752Z,12.50
2023-04-10T08:52:21.400Z,12.50
2023-04-10T08:55:10.370Z,12.60
2023-04-10T08:58:01.509Z,12.80
2023-04-10T09:00:50.000Z,13.00
2023-04-10T09:03:38.764Z,13.10
2023-04-10T09:06:28.307Z,13.20
2023-04-10T09:09:16.365Z,13.10
2023-04-10T09:12:06.735Z,13.20
2023-04-10T09:14:54.785Z,13.40
2023-04-10T09:17:55.744Z,13.40
2023-04-10T09:20:43.822Z,13.60
2023-04-10T09:23:33.205Z,13.70
2023-04-10T09:26:28.015Z,13.80
2023-04-10T09:29:16.952Z,13.90
2023-04-10T09:32:04.998Z,13.90
2023-04-10T09:34:54.826Z,14.00
2023-04-10T09:37:45.013Z,14.10
2023-04-10T09:40:34.490Z,14.20
2023-04-10T09:43:23.553Z,14.30
2023-04-10T09:46:11.768Z,14.50
2023-04-10T09:49:01.380Z,14.60
2023-04-10T09:51:49.679Z,14.70
2023-04-10T09:54:38.495Z,14.70
2023-04-10T09:57:29.598Z,14.80
2023-04-10T10:00:17.762Z,15.00
2023-04-10T10:03:08.549Z,15.10
2023-04-10T10:05:56.798Z,15.10
2023-04-10T10:08:45.934Z,15.20
2023-04-10T10:11:34.584Z,15.30
2023-04-10T10:14:26.066Z,15.40
2023-04-10T10:17:16.471Z,15.50
2023-04-10T10:20:05.812Z,15.60
2023-04-10T10:22:54.474Z,15.60
2023-04-10T10:25:42.802Z,15.70
2023-04-10T10:28:32.462Z,15.80
2023-04-10T10:31:22.544Z,15.90
2023-04-10T10:34:11.099Z,16.10
2023-04-10T10:36:59.174Z,16.10
2023-04-10T10:39:51.144Z,16.20
2023-04-10T10:42:41.805Z,16.30
2023-04-10T10:45:32.143Z,16.40
2023-04-10T10:48:21.557Z,16.50
2023-04-10T10:51:09.595Z,16.60
2023-04-10T10:53:57.620Z,16.60
2023-04-10T10:56:53.292Z,16.60
2023-04-10T10:59:59.522Z,16.70
2023-04-10T11:03:11.638Z,16.80
2023-04-10T11:06:02.793Z,17.00
2023-04-10T11:08:53.134Z,16.90
2023-04-10T11:11:57.713Z,17.00
2023-04-10T11:14:46.341Z,17.20
2023-04-10T11:17:54.367Z,17.50
2023-04-10T11:20:57.593Z,17.70
2023-04-10T11:24:04.044Z,17.80
2023-04-10T11:26:52.137Z,17.80
2023-04-10T11:29:40.160Z,18.00
2023-04-10T11:32:28.222Z,18.20
2023-04-10T11:35:19.389Z,18.50
2023-04-10T11:38:14.490Z,18.40
2023-04-10T11:41:06.742Z,18.20
2023-04-10T11:43:54.793Z,18.20
2023-04-10T11:46:43.554Z,18.30
2023-04-10T11:49:32.943Z,18.40
2023-04-10T11:52:25.529Z,18.50
2023-04-10T11:55:13.629Z,18.60
2023-04-10T11:58:02.998Z,18.70
2023-04-10T12:00:57.819Z,18.80
2023-04-10T12:03:46.103Z,18.90
2023-04-10T12:06:34.239Z,19.20
2023-04-10T12:09:22.356Z,19.30
2023-04-10T12:12:11.096Z,19.30
2023-04-10T12:15:00.483Z,19.20
2023-04-10T12:17:48.666Z,19.20
2023-04-10T12:20:36.770Z,19.30
2023-04-10T12:23:29.863Z,19.50
2023-04-10T12:26:19.323Z,19.50
2023-04-10T12:29:08.020Z,19.60
2023-04-10T12:31:57.374Z,19.60
2023-04-10T12:34:50.822Z,19.70
2023-04-10T12:37:48.501Z,19.80
2023-04-10T12:40:38.408Z,20.00
2023-04-10T12:43:36.967Z,20.10
2023-04-10T12:46:26.120Z,20.10
2023-04-10T12:49:16.140Z,20.20
2023-04-10T12:52:04.201Z,20.30
2023-04-10T12:54:52.269Z,20.40
2023-04-10T12:57:40.641Z,20.60
2023-04-10T13:00:28.668Z,20.60
2023-04-10T13:03:16.793Z,20.80
2023-04-10T13:06:07.928Z,21.10
2023-04-10T13:08:56.410Z,21.30
2023-04-10T13:11:45.934Z,21.50
2023-04-10T13:14:35.222Z,21.90
2023-04-10T13:17:23.313Z,22.20
2023-04-10T13:20:12.025Z,22.40
2023-04-10T13:23:02.772Z,21.90
2023-04-10T13:25:51.098Z,21.90
2023-04-10T13:28:39.125Z,22.40
2023-04-10T13:31:27.201Z,22.30
2023-04-10T13:34:15.388Z,22.40
2023-04-10T13:37:03.839Z,22.40
2023-04-10T13:39:53.439Z,22.50
2023-04-10T13:42:42.624Z,22.80
2023-04-10T13:45:30.732Z,22.70
2023-04-10T13:48:24.390Z,23.00
2023-04-10T13:51:15.366Z,23.50
2023-04-10T13:54:04.916Z,23.80
2023-04-10T13:56:54.888Z,24.10
2023-04-10T13:59:43.226Z,24.60
2023-04-10T14:02:31.453Z,25.00
2023-04-10T14:05:19.598Z,25.40
2023-04-10T14:08:11.562Z,24.90
2023-04-10T14:10:59.654Z,24.30
2023-04-10T14:13:49.020Z,24.10
2023-04-10T14:16:37.056Z,24.20
2023-04-10T14:19:25.089Z,24.40
2023-04-10T14:22:13.265Z,24.20
2023-04-10T14:25:11.875Z,24.30
2023-04-10T14:28:01.432Z,24.70
2023-04-10T14:30:51.751Z,25.20
2023-04-10T14:33:39.794Z,25.30
2023-04-10T14:36:28.790Z,26.10
2023-04-10T14:39:16.867Z,26.80
2023-04-10T14:42:05.375Z,27.20
2023-04-10T14:44:53.385Z,26.80
2023-04-10T14:47:42.827Z,26.60
2023-04-10T14:50:32.496Z,25.90
2023-04-10T14:53:21.634Z,25.30
2023-04-10T14:56:12.560Z,24.90
2023-04-10T14:59:00.778Z,24.00
2023-04-10T15:01:48.916Z,23.30
2023-04-10T15:04:38.580Z,22.30
2023-04-10T15:07:28.257Z,21.70
2023-04-10T15:10:16.308Z,21.30
2023-04-10T15:13:05.194Z,21.10
2023-04-10T15:15:53.231Z,21.40
2023-04-10T15:18:41.286Z,21.70
2023-04-10T15:21:31.503Z,21.70
2023-04-10T15:24:19.499Z,21.50
2023-04-10T15:27:07.717Z,21.20
2023-04-10T15:29:55.802Z,20.60
2023-04-10T15:32:43.914Z,20.10
2023-04-10T15:35:36.577Z,19.90
2023-04-10T15:38:28.686Z,19.90
2023-04-10T15:41:16.813Z,19.90
2023-04-10T15:44:04.790Z,19.70
2023-04-10T15:46:53.096Z,19.50
2023-04-10T15:49:41.158Z,19.30
2023-04-10T15:52:31.639Z,19.20
2023-04-10T15:55:21.125Z,19.20
2023-04-10T15:58:09.238Z,19.20
2023-04-10T16:00:57.230Z,19.10
2023-04-10T16:03:45.642Z,19.00
2023-04-10T16:06:34.448Z,18.80
2023-04-10T16:09:26.214Z,18.60
2023-04-10T16:12:16.807Z,18.40
2023-04-10T16:15:05.156Z,18.20
2023-04-10T16:17:53.281Z,18.00
2023-04-10T16:20:41.662Z,17.80
2023-04-10T16:23:29.705Z,17.70
2023-04-10T16:26:18.521Z,17.50
2023-04-10T16:29:07.960Z,17.40
2023-04-10T16:31:56.019Z,17.30
2023-04-10T16:34:44.114Z,17.10
2023-04-10T16:37:32.242Z,16.90
2023-04-10T16:40:20.315Z,16.90
2023-04-10T16:43:08.569Z,16.80
2023-04-10T16:45:58.115Z,16.60
2023-04-10T16:48:46.183Z,16.50
2023-04-10T16:51:34.286Z,16.40
2023-04-10T16:54:22.338Z,16.40
2023-04-10T16:57:10.366Z,16.40
2023-04-10T16:59:59.038Z,16.40
2023-04-10T17:02:49.307Z,16.30
2023-04-10T17:05:37.369Z,16.30
2023-04-10T17:08:25.467Z,16.20
2023-04-10T17:11:13.558Z,16.20
2023-04-10T17:14:01.613Z,16.10
2023-04-10T17:16:49.665Z,16.10
2023-04-10T17:19:39.558Z,16.00
2023-04-10T17:22:27.588Z,16.00
2023-04-10T17:25:15.827Z,15.90
2023-04-10T17:28:03.865Z,15.90
2023-04-10T17:30:51.875Z,15.80
2023-04-10T17:33:41.771Z,15.70
2023-04-10T17:36:32.163Z,15.70
2023-04-10T17:39:20.144Z,15.50
2023-04-10T17:42:08.264Z,15.50
2023-04-10T17:44:56.299Z,15.40
2023-04-10T17:47:44.331Z,15.40
2023-04-10T17:50:32.411Z,15.30
2023-04-10T17:53:21.787Z,15.20
2023-04-10T17:56:17.555Z,15.10
2023-04-10T17:59:05.585Z,15.10
2023-04-10T18:01:53.752Z,15.00
2023-04-10T18:04:41.878Z,14.90
2023-04-10T18:07:29.913Z,14.80
2023-04-10T18:10:19.453Z,14.70
2023-04-10T18:13:07.749Z,14.60
2023-04-10T18:15:55.793Z,14.60
2023-04-10T18:18:43.924Z,14.50
2023-04-10T18:21:31.998Z,14.40
2023-04-10T18:24:20.017Z,14.40
2023-04-10T18:27:09.369Z,14.30
2023-04-10T18:29:57.716Z,14.30
2023-04-10T18:32:46.584Z,14.30
2023-04-10T18:35:34.633Z,14.20
2023-04-10T18:38:22.727Z,14.10
2023-04-10T18:41:11.328Z,14.10
2023-04-10T18:44:04.768Z,14.00
2023-04-10T18:47:03.712Z,13.90
2023-04-10T18:49:53.016Z,13.80
2023-04-10T18:52:41.031Z,13.70
2023-04-10T18:55:29.061Z,13.70
2023-04-10T18:58:17.058Z,13.70
2023-04-10T19:01:06.706Z,13.70
2023-04-10T19:03:55.163Z,13.70
2023-04-10T19:06:46.069Z,13.70
2023-04-10T19:09:34.087Z,13.70
2023-04-10T19:12:22.129Z,13.60
2023-04-10T19:15:11.930Z,13.60
2023-04-10T19:18:01.332Z,13.50
2023-04-10T19:20:53.106Z,13.50
2023-04-10T19:23:41.672Z,13.50
2023-04-10T19:26:29.764Z,13.40
2023-04-10T19:29:17.801Z,13.30
2023-04-10T19:32:05.968Z,13.30
2023-04-10T19:34:56.264Z,13.20
2023-04-10T19:37:44.330Z,13.20
2023-04-10T19:40:32.408Z,13.20
2023-04-10T19:43:20.558Z,13.20
2023-04-10T19:46:15.962Z,13.20
2023-04-10T19:49:04.094Z,13.20
2023-04-10T19:51:53.552Z,13.20
2023-04-10T19:54:41.640Z,13.20
2023-04-10T19:57:29.783Z,13.10
2023-04-10T20:00:17.954Z,13.20
2023-04-10T20:03:06.237Z,13.10
2023-04-10T20:05:54.420Z,13.10
2023-04-10T20:08:43.909Z,13.10
2023-04-10T20:11:31.935Z,13.10
2023-04-10T20:14:20.201Z,13.10
2023-04-10T20:17:08.204Z,13.10
2023-04-10T20:19:56.489Z,13.10
2023-04-10T20:22:44.472Z,13.10
2023-04-10T20:25:34.321Z,13.00
2023-04-10T20:28:22.403Z,13.00
2023-04-10T20:31:11.810Z,13.00
2023-04-10T20:33:59.846Z,12.90
2023-04-10T20:36:47.893Z,12.80
2023-04-10T20:39:37.575Z,12.80
2023-04-10T20:42:27.445Z,12.80
2023-04-10T20:45:15.679Z,12.70
2023-04-10T20:48:03.804Z,12.70
2023-04-10T20:50:51.938Z,12.70
2023-04-10T20:53:40.254Z,12.60
2023-04-10T20:56:40.284Z,12.60
2023-04-10T20:59:32.537Z,12.60
2023-04-10T21:02:20.626Z,12.60
2023-04-10T21:05:09.302Z,12.60
2023-04-10T21:07:57.444Z,12.60
2023-04-10T21:10:45.928Z,12.60
2023-04-10T21:13:34.680Z,12.60
2023-04-10T21:16:25.501Z,12.60
2023-04-10T21:19:13.574Z,12.60
2023-04-10T21:22:01.609Z,12.60
2023-04-10T21:24:49.693Z,12.60
2023-04-10T21:27:37.754Z,12.60
2023-04-10T21:30:25.760Z,12.60
2023-04-10T21:33:15.549Z,12.60
2023-04-10T21:36:03.618Z,12.60
2023-04-10T21:38:52.147Z,12.60
2023-04-10T21:41:40.724Z,12.60
2023-04-10T21:44:28.734Z,12.50
2023-04-10T21:47:16.784Z,12.50
2023-04-10T21:50:06.719Z,12.40
2023-04-10T21:52:54.792Z,12.40
2023-04-10T21:55:42.941Z,12.30
2023-04-10T21:58:32.247Z,12.30
2023-04-10T22:01:20.382Z,12.20
2023-04-10T22:04:08.675Z,12.20
2023-04-10T22:06:58.131Z,12.20
2023-04-10T22:09:46.175Z,12.20
2023-04-10T22:12:34.208Z,12.20
2023-04-10T22:15:22.232Z,12.30
2023-04-10T22:18:10.237Z,12.20
2023-04-10T22:20:58.423Z,12.20
2023-04-10T22:23:47.773Z,12.20
2023-04-10T22:26:35.884Z,12.20
2023-04-10T22:29:23.881Z,12.20
2023-04-10T22:32:11.905Z,12.20
2023-04-10T22:35:00.076Z,12.20
2023-04-10T22:37:48.195Z,12.30
2023-04-10T22:40:37.567Z,12.30
2023-04-10T22:43:25.595Z,12.30
2023-04-10T22:46:13.625Z,12.40
2023-04-10T22:49:01.660Z,12.30
2023-04-10T22:51:49.654Z,12.40
2023-04-10T22:54:37.686Z,12.30
2023-04-10T22:57:27.030Z,12.30
2023-04-10T23:00:15.441Z,12.30
2023-04-10T23:03:03.648Z,12.30
2023-04-10T23:05:51.987Z,12.20
2023-04-10T23:08:40.039Z,12.20
2023-04-10T23:11:28.032Z,12.20
2023-04-10T23:14:17.399Z,12.20
2023-04-10T23:17:05.485Z,12.30
2023-04-10T23:19:53.486Z,12.30
2023-04-10T23:22:41.742Z,12.30
2023-04-10T23:25:29.730Z,12.20
2023-04-10T23:28:17.780Z,12.20
2023-04-10T23:31:09.000Z,12.20
2023-04-10T23:33:57.135Z,12.20
2023-04-10T23:36:45.322Z,12.20
2023-04-10T23:39:33.707Z,12.20
2023-04-10T23:42:21.737Z,12.10
2023-04-10T23:45:10.284Z,12.20
2023-04-10T23:47:59.742Z,12.10
2023-04-10T23:50:47.789Z,12.10
2023-04-10T23:53:36.123Z,12.20
2023-04-10T23:56:28.969Z,12.10
2023-04-10T23:59:17.135Z,12.10
